sensor_id;sensor_type;location;lat;lon;timestamp;P1;durP1;ratioP1;P2;durP2;ratioP2
39728;SDS011;25402;42.004;23.088;2022-08-19T05:10:06;29.10;;;8.27;;
39728;SDS011;25402;42.004;23.088;2022-08-19T05:12:33;19.08;;;6.88;;
39728;SDS011;25402;42.004;23.088;2022-08-19T05:15:13;17.45;;;7.97;;
39728;SDS011;25402;42.004;23.088;2022-08-19T05:17:40;16.42;;;7.53;;
39728;SDS011;25402;42.004;23.088;2022-08-19T05:20:30;16.85;;;7.22;;
39728;SDS011;25402;42.004;23.088;2022-08-19T05:23:15;33.13;;;7.25;;
39728;SDS011;25402;42.004;23.088;2022-08-19T05:25:46;15.02;;;7.05;;
39728;SDS011;25402;42.004;23.088;2022-08-19T05:28:18;14.75;;;6.63;;
39728;SDS011;25402;42.004;23.088;2022-08-19T05:30:51;23.63;;;7.38;;
39728;SDS011;25402;42.004;23.088;2022-08-19T05:33:21;13.75;;;6.90;;
39728;SDS011;25402;42.004;23.088;2022-08-19T05:35:49;19.45;;;7.35;;
39728;SDS011;25402;42.004;23.088;2022-08-19T05:38:17;20.30;;;8.27;;
39728;SDS011;25402;42.004;23.088;2022-08-19T05:43:36;25.70;;;7.60;;
39728;SDS011;25402;42.004;23.088;2022-08-19T05:46:16;17.33;;;7.20;;
39728;SDS011;25402;42.004;23.088;2022-08-19T05:48:48;24.73;;;9.80;;
39728;SDS011;25402;42.004;23.088;2022-08-19T05:51:16;12.98;;;6.78;;
39728;SDS011;25402;42.004;23.088;2022-08-19T05:53:47;17.75;;;7.28;;
39728;SDS011;25402;42.004;23.088;2022-08-19T05:56:26;15.90;;;7.90;;
39728;SDS011;25402;42.004;23.088;2022-08-19T05:58:55;17.67;;;7.00;;
39728;SDS011;25402;42.004;23.088;2022-08-19T06:01:24;17.90;;;6.45;;
39728;SDS011;25402;42.004;23.088;2022-08-19T06:03:54;12.65;;;6.30;;
39728;SDS011;25402;42.004;23.088;2022-08-19T06:06:21;13.20;;;6.38;;
39728;SDS011;25402;42.004;23.088;2022-08-19T06:08:48;13.68;;;6.88;;
39728;SDS011;25402;42.004;23.088;2022-08-19T06:11:17;13.90;;;5.88;;
39728;SDS011;25402;42.004;23.088;2022-08-19T06:13:48;22.98;;;6.70;;
39728;SDS011;25402;42.004;23.088;2022-08-19T06:16:20;29.63;;;6.80;;
39728;SDS011;25402;42.004;23.088;2022-08-19T06:23:08;10.30;;;6.15;;
39728;SDS011;25402;42.004;23.088;2022-08-19T06:25:35;11.82;;;6.32;;
39728;SDS011;25402;42.004;23.088;2022-08-19T06:28:05;9.02;;;5.90;;
39728;SDS011;25402;42.004;23.088;2022-08-19T06:30:35;11.15;;;5.32;;
39728;SDS011;25402;42.004;23.088;2022-08-19T06:33:04;13.65;;;6.35;;
39728;SDS011;25402;42.004;23.088;2022-08-19T06:35:42;14.82;;;6.68;;
39728;SDS011;25402;42.004;23.088;2022-08-19T06:38:10;17.58;;;6.15;;
39728;SDS011;25402;42.004;23.088;2022-08-19T06:40:37;12.88;;;6.32;;
39728;SDS011;25402;42.004;23.088;2022-08-19T06:43:07;19.60;;;6.40;;
39728;SDS011;25402;42.004;23.088;2022-08-19T06:45:38;20.23;;;6.90;;
39728;SDS011;25402;42.004;23.088;2022-08-19T06:48:04;14.00;;;6.15;;
39728;SDS011;25402;42.004;23.088;2022-08-19T06:50:32;16.40;;;6.40;;
39728;SDS011;25402;42.004;23.088;2022-08-19T06:53:06;14.27;;;6.00;;
39728;SDS011;25402;42.004;23.088;2022-08-19T06:55:35;11.95;;;6.30;;
39728;SDS011;25402;42.004;23.088;2022-08-19T06:58:08;11.55;;;6.22;;
39728;SDS011;25402;42.004;23.088;2022-08-19T07:00:36;20.35;;;6.97;;
39728;SDS011;25402;42.004;23.088;2022-08-19T07:03:08;23.17;;;14.43;;
39728;SDS011;25402;42.004;23.088;2022-08-19T07:05:41;47.50;;;27.23;;
39728;SDS011;25402;42.004;23.088;2022-08-19T07:08:26;27.42;;;9.40;;
39728;SDS011;25402;42.004;23.088;2022-08-19T07:11:10;15.18;;;8.73;;
39728;SDS011;25402;42.004;23.088;2022-08-19T07:13:41;22.38;;;11.93;;
39728;SDS011;25402;42.004;23.088;2022-08-19T07:16:25;32.70;;;11.05;;
39728;SDS011;25402;42.004;23.088;2022-08-19T07:19:15;14.00;;;6.47;;
39728;SDS011;25402;42.004;23.088;2022-08-19T07:21:42;14.25;;;5.95;;
39728;SDS011;25402;42.004;23.088;2022-08-19T07:24:20;24.08;;;5.90;;
39728;SDS011;25402;42.004;23.088;2022-08-19T07:26:55;19.23;;;5.18;;
39728;SDS011;25402;42.004;23.088;2022-08-19T07:29:29;15.45;;;5.68;;
39728;SDS011;25402;42.004;23.088;2022-08-19T07:32:01;12.35;;;5.43;;
39728;SDS011;25402;42.004;23.088;2022-08-19T07:34:42;12.32;;;5.75;;
39728;SDS011;25402;42.004;23.088;2022-08-19T07:37:18;18.10;;;6.05;;
39728;SDS011;25402;42.004;23.088;2022-08-19T07:39:48;17.13;;;5.88;;
39728;SDS011;25402;42.004;23.088;2022-08-19T07:42:32;13.10;;;5.20;;
39728;SDS011;25402;42.004;23.088;2022-08-19T07:45:20;14.63;;;5.85;;
39728;SDS011;25402;42.004;23.088;2022-08-19T07:47:56;9.73;;;5.65;;
39728;SDS011;25402;42.004;23.088;2022-08-19T07:50:41;10.25;;;5.68;;
39728;SDS011;25402;42.004;23.088;2022-08-19T07:53:32;14.65;;;5.72;;
39728;SDS011;25402;42.004;23.088;2022-08-19T07:56:03;13.40;;;5.80;;
39728;SDS011;25402;42.004;23.088;2022-08-19T07:58:43;12.48;;;5.43;;
39728;SDS011;25402;42.004;23.088;2022-08-19T08:01:44;14.68;;;5.68;;
39728;SDS011;25402;42.004;23.088;2022-08-19T08:04:11;18.48;;;5.80;;
39728;SDS011;25402;42.004;23.088;2022-08-19T08:06:57;19.80;;;5.60;;
39728;SDS011;25402;42.004;23.088;2022-08-19T08:09:42;17.40;;;5.80;;
39728;SDS011;25402;42.004;23.088;2022-08-19T08:12:11;17.58;;;5.95;;
39728;SDS011;25402;42.004;23.088;2022-08-19T08:14:46;12.48;;;5.78;;
39728;SDS011;25402;42.004;23.088;2022-08-19T08:17:14;15.93;;;5.80;;
39728;SDS011;25402;42.004;23.088;2022-08-19T08:19:44;12.32;;;5.68;;
39728;SDS011;25402;42.004;23.088;2022-08-19T08:22:15;18.27;;;5.70;;
39728;SDS011;25402;42.004;23.088;2022-08-19T08:25:00;13.85;;;5.70;;
39728;SDS011;25402;42.004;23.088;2022-08-19T08:27:29;19.17;;;5.57;;
39728;SDS011;25402;42.004;23.088;2022-08-19T08:29:57;14.60;;;6.10;;
39728;SDS011;25402;42.004;23.088;2022-08-19T08:32:25;20.05;;;6.38;;
39728;SDS011;25402;42.004;23.088;2022-08-19T08:34:53;13.65;;;6.03;;
39728;SDS011;25402;42.004;23.088;2022-08-19T08:37:39;14.77;;;5.68;;
39728;SDS011;25402;42.004;23.088;2022-08-19T08:40:09;14.02;;;5.30;;
39728;SDS011;25402;42.004;23.088;2022-08-19T08:42:46;14.05;;;5.55;;
39728;SDS011;25402;42.004;23.088;2022-08-19T08:45:18;16.17;;;5.80;;
39728;SDS011;25402;42.004;23.088;2022-08-19T08:48:02;22.73;;;5.78;;
39728;SDS011;25402;42.004;23.088;2022-08-19T08:50:41;17.40;;;5.88;;
39728;SDS011;25402;42.004;23.088;2022-08-19T08:53:28;17.70;;;6.40;;
39728;SDS011;25402;42.004;23.088;2022-08-19T08:56:02;14.20;;;6.28;;
39728;SDS011;25402;42.004;23.088;2022-08-19T08:58:53;12.68;;;5.60;;
39728;SDS011;25402;42.004;23.088;2022-08-19T09:01:44;35.15;;;9.30;;
39728;SDS011;25402;42.004;23.088;2022-08-19T09:04:28;17.83;;;7.00;;
39728;SDS011;25402;42.004;23.088;2022-08-19T09:07:18;19.30;;;8.00;;
39728;SDS011;25402;42.004;23.088;2022-08-19T09:30:41;15.05;;;5.60;;
39728;SDS011;25402;42.004;23.088;2022-08-19T09:33:25;16.05;;;5.45;;
39728;SDS011;25402;42.004;23.088;2022-08-19T09:36:27;13.47;;;6.00;;
39728;SDS011;25402;42.004;23.088;2022-08-19T09:39:11;14.23;;;6.82;;
39728;SDS011;25402;42.004;23.088;2022-08-19T09:41:57;9.05;;;4.60;;
39728;SDS011;25402;42.004;23.088;2022-08-19T09:44:40;6.43;;;4.50;;
39728;SDS011;25402;42.004;23.088;2022-08-19T09:47:26;12.25;;;6.15;;
39728;SDS011;25402;42.004;23.088;2022-08-19T09:50:19;10.20;;;5.10;;
39728;SDS011;25402;42.004;23.088;2022-08-19T09:53:04;13.95;;;4.75;;
39728;SDS011;25402;42.004;23.088;2022-08-19T09:55:46;13.18;;;4.50;;
39728;SDS011;25402;42.004;23.088;2022-08-19T09:58:13;12.77;;;4.88;;
39728;SDS011;25402;42.004;23.088;2022-08-19T10:04:28;10.95;;;4.68;;
39728;SDS011;25402;42.004;23.088;2022-08-19T10:07:09;15.30;;;4.75;;
39728;SDS011;25402;42.004;23.088;2022-08-19T10:09:39;9.05;;;4.70;;
39728;SDS011;25402;42.004;23.088;2022-08-19T10:12:08;12.85;;;4.85;;
39728;SDS011;25402;42.004;23.088;2022-08-19T10:14:35;16.13;;;4.90;;
39728;SDS011;25402;42.004;23.088;2022-08-19T10:17:02;11.02;;;4.90;;
39728;SDS011;25402;42.004;23.088;2022-08-19T10:19:30;11.02;;;5.28;;
39728;SDS011;25402;42.004;23.088;2022-08-19T10:22:02;10.57;;;5.05;;
39728;SDS011;25402;42.004;23.088;2022-08-19T10:24:29;9.70;;;4.72;;
39728;SDS011;25402;42.004;23.088;2022-08-19T10:26:56;9.57;;;4.53;;
39728;SDS011;25402;42.004;23.088;2022-08-19T10:29:23;26.35;;;5.70;;
39728;SDS011;25402;42.004;23.088;2022-08-19T10:31:49;12.82;;;5.90;;
39728;SDS011;25402;42.004;23.088;2022-08-19T10:34:17;17.77;;;5.43;;
39728;SDS011;25402;42.004;23.088;2022-08-19T10:36:47;12.48;;;4.75;;
39728;SDS011;25402;42.004;23.088;2022-08-19T10:39:14;11.70;;;6.03;;
39728;SDS011;25402;42.004;23.088;2022-08-19T10:41:41;15.02;;;5.32;;
39728;SDS011;25402;42.004;23.088;2022-08-19T10:44:09;8.18;;;4.25;;
39728;SDS011;25402;42.004;23.088;2022-08-19T10:46:40;13.60;;;3.47;;
39728;SDS011;25402;42.004;23.088;2022-08-19T10:49:12;9.63;;;3.50;;
39728;SDS011;25402;42.004;23.088;2022-08-19T10:51:41;10.48;;;3.42;;
39728;SDS011;25402;42.004;23.088;2022-08-19T10:54:26;5.88;;;3.40;;
39728;SDS011;25402;42.004;23.088;2022-08-19T10:57:07;12.98;;;4.07;;
39728;SDS011;25402;42.004;23.088;2022-08-19T10:59:34;10.98;;;4.03;;
39728;SDS011;25402;42.004;23.088;2022-08-19T11:02:01;11.15;;;3.95;;
39728;SDS011;25402;42.004;23.088;2022-08-19T11:04:29;6.53;;;3.40;;
39728;SDS011;25402;42.004;23.088;2022-08-19T11:06:57;9.05;;;3.13;;
39728;SDS011;25402;42.004;23.088;2022-08-19T11:09:24;6.75;;;3.40;;
39728;SDS011;25402;42.004;23.088;2022-08-19T11:11:52;4.90;;;3.15;;
39728;SDS011;25402;42.004;23.088;2022-08-19T11:14:20;14.80;;;3.67;;
39728;SDS011;25402;42.004;23.088;2022-08-19T11:16:49;9.32;;;3.70;;
39728;SDS011;25402;42.004;23.088;2022-08-19T11:19:17;7.22;;;3.72;;
39728;SDS011;25402;42.004;23.088;2022-08-19T11:21:45;10.50;;;4.30;;
39728;SDS011;25402;42.004;23.088;2022-08-19T11:24:14;11.95;;;3.92;;
39728;SDS011;25402;42.004;23.088;2022-08-19T11:26:44;5.53;;;3.47;;
39728;SDS011;25402;42.004;23.088;2022-08-19T11:29:11;18.92;;;4.53;;
39728;SDS011;25402;42.004;23.088;2022-08-19T11:31:39;9.25;;;3.63;;
39728;SDS011;25402;42.004;23.088;2022-08-19T11:34:08;7.18;;;3.50;;
39728;SDS011;25402;42.004;23.088;2022-08-19T11:36:38;6.75;;;3.88;;
39728;SDS011;25402;42.004;23.088;2022-08-19T11:39:08;11.32;;;3.67;;
39728;SDS011;25402;42.004;23.088;2022-08-19T11:41:36;10.98;;;3.80;;
39728;SDS011;25402;42.004;23.088;2022-08-19T11:44:03;10.77;;;3.90;;
39728;SDS011;25402;42.004;23.088;2022-08-19T11:46:31;17.73;;;4.60;;
39728;SDS011;25402;42.004;23.088;2022-08-19T11:48:58;10.00;;;4.07;;
39728;SDS011;25402;42.004;23.088;2022-08-19T11:51:26;15.20;;;4.25;;
39728;SDS011;25402;42.004;23.088;2022-08-19T11:53:54;7.93;;;3.50;;
39728;SDS011;25402;42.004;23.088;2022-08-19T11:56:23;8.73;;;3.50;;
39728;SDS011;25402;42.004;23.088;2022-08-19T11:58:52;11.15;;;3.60;;
39728;SDS011;25402;42.004;23.088;2022-08-19T12:01:21;8.13;;;3.85;;
39728;SDS011;25402;42.004;23.088;2022-08-19T12:03:50;15.48;;;4.43;;
39728;SDS011;25402;42.004;23.088;2022-08-19T12:06:19;9.82;;;4.18;;
39728;SDS011;25402;42.004;23.088;2022-08-19T12:08:53;11.30;;;3.67;;
39728;SDS011;25402;42.004;23.088;2022-08-19T12:11:25;12.30;;;3.75;;
39728;SDS011;25402;42.004;23.088;2022-08-19T12:13:52;15.70;;;4.10;;
39728;SDS011;25402;42.004;23.088;2022-08-19T12:16:22;17.35;;;4.50;;
39728;SDS011;25402;42.004;23.088;2022-08-19T12:18:52;10.15;;;3.42;;
39728;SDS011;25402;42.004;23.088;2022-08-19T12:21:20;10.85;;;3.88;;
39728;SDS011;25402;42.004;23.088;2022-08-19T12:23:50;10.82;;;3.45;;
39728;SDS011;25402;42.004;23.088;2022-08-19T12:26:18;9.40;;;3.63;;
39728;SDS011;25402;42.004;23.088;2022-08-19T12:28:45;12.23;;;3.35;;
39728;SDS011;25402;42.004;23.088;2022-08-19T12:31:16;10.13;;;3.78;;
39728;SDS011;25402;42.004;23.088;2022-08-19T12:33:45;10.80;;;3.80;;
39728;SDS011;25402;42.004;23.088;2022-08-19T12:36:14;15.52;;;4.10;;
39728;SDS011;25402;42.004;23.088;2022-08-19T12:38:42;7.43;;;3.40;;
39728;SDS011;25402;42.004;23.088;2022-08-19T12:41:10;16.23;;;4.53;;
39728;SDS011;25402;42.004;23.088;2022-08-19T12:43:38;9.63;;;4.07;;
39728;SDS011;25402;42.004;23.088;2022-08-19T12:46:06;16.63;;;3.90;;
39728;SDS011;25402;42.004;23.088;2022-08-19T12:48:37;16.23;;;4.82;;
39728;SDS011;25402;42.004;23.088;2022-08-19T12:51:08;13.85;;;4.03;;
39728;SDS011;25402;42.004;23.088;2022-08-19T12:53:37;15.60;;;4.03;;
39728;SDS011;25402;42.004;23.088;2022-08-19T12:56:04;16.95;;;3.80;;
39728;SDS011;25402;42.004;23.088;2022-08-19T12:58:33;13.27;;;3.70;;
39728;SDS011;25402;42.004;23.088;2022-08-19T13:01:00;11.80;;;3.90;;
39728;SDS011;25402;42.004;23.088;2022-08-19T13:05:58;20.10;;;4.00;;
39728;SDS011;25402;42.004;23.088;2022-08-19T13:08:26;20.45;;;3.67;;
39728;SDS011;25402;42.004;23.088;2022-08-19T13:10:53;10.52;;;3.70;;
39728;SDS011;25402;42.004;23.088;2022-08-19T13:13:20;11.63;;;3.90;;
39728;SDS011;25402;42.004;23.088;2022-08-19T13:15:47;10.52;;;3.80;;
39728;SDS011;25402;42.004;23.088;2022-08-19T13:18:14;16.15;;;3.40;;
39728;SDS011;25402;42.004;23.088;2022-08-19T13:20:42;13.07;;;3.65;;
39728;SDS011;25402;42.004;23.088;2022-08-19T13:23:09;12.02;;;3.55;;
39728;SDS011;25402;42.004;23.088;2022-08-19T13:25:38;10.55;;;3.25;;
39728;SDS011;25402;42.004;23.088;2022-08-19T13:28:04;9.02;;;3.63;;
39728;SDS011;25402;42.004;23.088;2022-08-19T13:30:31;11.65;;;3.55;;
39728;SDS011;25402;42.004;23.088;2022-08-19T13:33:24;12.25;;;3.80;;
39728;SDS011;25402;42.004;23.088;2022-08-19T13:35:56;12.80;;;3.08;;
39728;SDS011;25402;42.004;23.088;2022-08-19T13:38:25;12.10;;;3.72;;
39728;SDS011;25402;42.004;23.088;2022-08-19T13:40:54;13.73;;;3.60;;
39728;SDS011;25402;42.004;23.088;2022-08-19T13:43:22;11.93;;;3.58;;
39728;SDS011;25402;42.004;23.088;2022-08-19T13:45:52;19.27;;;4.20;;
39728;SDS011;25402;42.004;23.088;2022-08-19T13:48:21;20.17;;;3.60;;
39728;SDS011;25402;42.004;23.088;2022-08-19T13:50:48;19.20;;;3.65;;
39728;SDS011;25402;42.004;23.088;2022-08-19T13:53:16;15.23;;;3.60;;
39728;SDS011;25402;42.004;23.088;2022-08-19T13:55:43;11.57;;;3.90;;
39728;SDS011;25402;42.004;23.088;2022-08-19T13:58:13;9.63;;;3.38;;
39728;SDS011;25402;42.004;23.088;2022-08-19T14:00:41;14.63;;;3.55;;
39728;SDS011;25402;42.004;23.088;2022-08-19T14:03:10;9.10;;;3.67;;
39728;SDS011;25402;42.004;23.088;2022-08-19T14:05:38;11.48;;;3.30;;
39728;SDS011;25402;42.004;23.088;2022-08-19T14:08:05;16.10;;;3.60;;
39728;SDS011;25402;42.004;23.088;2022-08-19T14:10:32;18.55;;;4.22;;
39728;SDS011;25402;42.004;23.088;2022-08-19T14:13:01;18.60;;;4.28;;
39728;SDS011;25402;42.004;23.088;2022-08-19T14:15:30;16.55;;;4.18;;
39728;SDS011;25402;42.004;23.088;2022-08-19T14:17:59;18.13;;;4.10;;
39728;SDS011;25402;42.004;23.088;2022-08-19T14:20:26;18.10;;;4.45;;
39728;SDS011;25402;42.004;23.088;2022-08-19T14:22:53;21.05;;;4.20;;
39728;SDS011;25402;42.004;23.088;2022-08-19T14:25:21;14.20;;;3.95;;
39728;SDS011;25402;42.004;23.088;2022-08-19T14:27:54;11.32;;;4.43;;
39728;SDS011;25402;42.004;23.088;2022-08-19T14:30:22;13.65;;;4.00;;
39728;SDS011;25402;42.004;23.088;2022-08-19T14:32:53;17.42;;;4.03;;
39728;SDS011;25402;42.004;23.088;2022-08-19T14:35:20;13.73;;;4.25;;
39728;SDS011;25402;42.004;23.088;2022-08-19T14:37:47;19.27;;;4.00;;
39728;SDS011;25402;42.004;23.088;2022-08-19T14:40:16;16.83;;;4.15;;
39728;SDS011;25402;42.004;23.088;2022-08-19T14:42:46;14.98;;;3.75;;
39728;SDS011;25402;42.004;23.088;2022-08-19T14:45:14;10.43;;;3.97;;
39728;SDS011;25402;42.004;23.088;2022-08-19T14:47:41;12.70;;;4.47;;
39728;SDS011;25402;42.004;23.088;2022-08-19T14:50:10;13.25;;;4.18;;
39728;SDS011;25402;42.004;23.088;2022-08-19T14:52:37;21.00;;;4.40;;
39728;SDS011;25402;42.004;23.088;2022-08-19T14:55:05;16.15;;;4.28;;
39728;SDS011;25402;42.004;23.088;2022-08-19T14:57:32;18.23;;;4.72;;
39728;SDS011;25402;42.004;23.088;2022-08-19T15:00:00;15.10;;;4.75;;
39728;SDS011;25402;42.004;23.088;2022-08-19T15:02:27;16.85;;;4.22;;
39728;SDS011;25402;42.004;23.088;2022-08-19T15:04:54;24.25;;;4.43;;
39728;SDS011;25402;42.004;23.088;2022-08-19T15:07:22;16.55;;;4.25;;
39728;SDS011;25402;42.004;23.088;2022-08-19T15:09:49;16.25;;;4.63;;
39728;SDS011;25402;42.004;23.088;2022-08-19T15:12:16;18.60;;;4.47;;
39728;SDS011;25402;42.004;23.088;2022-08-19T15:14:43;14.40;;;4.20;;
39728;SDS011;25402;42.004;23.088;2022-08-19T15:17:15;19.63;;;4.25;;
39728;SDS011;25402;42.004;23.088;2022-08-19T15:19:42;19.48;;;4.38;;
39728;SDS011;25402;42.004;23.088;2022-08-19T15:22:10;14.85;;;4.32;;
39728;SDS011;25402;42.004;23.088;2022-08-19T15:24:38;12.27;;;4.55;;
39728;SDS011;25402;42.004;23.088;2022-08-19T15:27:05;9.45;;;3.75;;
39728;SDS011;25402;42.004;23.088;2022-08-19T15:29:31;23.35;;;4.72;;
39728;SDS011;25402;42.004;23.088;2022-08-19T15:31:58;16.85;;;4.63;;
39728;SDS011;25402;42.004;23.088;2022-08-19T15:34:25;13.55;;;4.03;;
39728;SDS011;25402;42.004;23.088;2022-08-19T15:36:52;16.75;;;5.25;;
39728;SDS011;25402;42.004;23.088;2022-08-19T15:39:19;14.40;;;4.35;;
39728;SDS011;25402;42.004;23.088;2022-08-19T15:41:47;11.75;;;4.28;;
39728;SDS011;25402;42.004;23.088;2022-08-19T15:44:15;12.43;;;4.22;;
39728;SDS011;25402;42.004;23.088;2022-08-19T15:46:43;13.40;;;4.28;;
39728;SDS011;25402;42.004;23.088;2022-08-19T15:49:13;14.40;;;4.50;;
39728;SDS011;25402;42.004;23.088;2022-08-19T15:51:42;10.88;;;4.00;;
39728;SDS011;25402;42.004;23.088;2022-08-19T15:54:10;20.02;;;4.50;;
39728;SDS011;25402;42.004;23.088;2022-08-19T15:56:40;21.02;;;4.63;;
39728;SDS011;25402;42.004;23.088;2022-08-19T15:59:25;11.55;;;4.32;;
39728;SDS011;25402;42.004;23.088;2022-08-19T16:02:10;18.02;;;4.50;;
39728;SDS011;25402;42.004;23.088;2022-08-19T16:04:55;9.95;;;3.92;;
39728;SDS011;25402;42.004;23.088;2022-08-19T16:07:40;21.52;;;4.25;;
39728;SDS011;25402;42.004;23.088;2022-08-19T16:10:07;15.95;;;5.13;;
39728;SDS011;25402;42.004;23.088;2022-08-19T16:12:34;23.17;;;6.05;;
39728;SDS011;25402;42.004;23.088;2022-08-19T16:15:05;20.40;;;6.72;;
39728;SDS011;25402;42.004;23.088;2022-08-19T16:17:33;17.35;;;6.97;;
39728;SDS011;25402;42.004;23.088;2022-08-19T16:20:00;19.23;;;6.72;;
39728;SDS011;25402;42.004;23.088;2022-08-19T16:22:28;22.60;;;7.90;;
39728;SDS011;25402;42.004;23.088;2022-08-19T16:24:55;19.75;;;7.00;;
39728;SDS011;25402;42.004;23.088;2022-08-19T16:27:22;23.17;;;8.23;;
39728;SDS011;25402;42.004;23.088;2022-08-19T16:29:49;20.52;;;9.40;;
39728;SDS011;25402;42.004;23.088;2022-08-19T16:32:18;25.48;;;7.50;;
39728;SDS011;25402;42.004;23.088;2022-08-19T16:34:45;22.08;;;7.78;;
39728;SDS011;25402;42.004;23.088;2022-08-19T16:37:13;18.40;;;5.95;;
39728;SDS011;25402;42.004;23.088;2022-08-19T16:39:40;21.05;;;6.30;;
39728;SDS011;25402;42.004;23.088;2022-08-19T16:42:07;19.48;;;7.80;;
39728;SDS011;25402;42.004;23.088;2022-08-19T16:44:35;28.08;;;7.18;;
39728;SDS011;25402;42.004;23.088;2022-08-19T16:47:03;20.67;;;6.15;;
39728;SDS011;25402;42.004;23.088;2022-08-19T16:49:31;15.98;;;7.07;;
39728;SDS011;25402;42.004;23.088;2022-08-19T16:51:58;22.02;;;7.38;;
39728;SDS011;25402;42.004;23.088;2022-08-19T16:54:30;21.13;;;9.15;;
39728;SDS011;25402;42.004;23.088;2022-08-19T16:56:57;12.00;;;6.57;;
39728;SDS011;25402;42.004;23.088;2022-08-19T16:59:24;14.40;;;6.03;;
39728;SDS011;25402;42.004;23.088;2022-08-19T17:01:50;16.60;;;4.72;;
39728;SDS011;25402;42.004;23.088;2022-08-19T17:04:17;13.13;;;5.30;;
39728;SDS011;25402;42.004;23.088;2022-08-19T17:06:45;11.20;;;4.93;;
39728;SDS011;25402;42.004;23.088;2022-08-19T17:09:13;16.50;;;4.45;;
39728;SDS011;25402;42.004;23.088;2022-08-19T17:11:43;16.05;;;4.35;;
39728;SDS011;25402;42.004;23.088;2022-08-19T17:14:09;21.42;;;4.60;;
39728;SDS011;25402;42.004;23.088;2022-08-19T17:16:37;20.38;;;4.70;;
39728;SDS011;25402;42.004;23.088;2022-08-19T17:19:04;33.10;;;4.70;;
39728;SDS011;25402;42.004;23.088;2022-08-19T17:21:33;26.92;;;4.50;;
39728;SDS011;25402;42.004;23.088;2022-08-19T17:24:06;18.70;;;5.32;;
39728;SDS011;25402;42.004;23.088;2022-08-19T17:26:34;98.38;;;9.00;;
39728;SDS011;25402;42.004;23.088;2022-08-19T17:29:09;99.28;;;11.15;;
39728;SDS011;25402;42.004;23.088;2022-08-19T17:31:36;27.48;;;6.25;;
39728;SDS011;25402;42.004;23.088;2022-08-19T17:34:04;30.00;;;6.35;;
39728;SDS011;25402;42.004;23.088;2022-08-19T17:36:31;64.28;;;9.88;;
39728;SDS011;25402;42.004;23.088;2022-08-19T17:38:59;75.55;;;10.73;;
39728;SDS011;25402;42.004;23.088;2022-08-19T17:41:31;105.65;;;13.35;;
39728;SDS011;25402;42.004;23.088;2022-08-19T17:43:59;72.78;;;10.15;;
39728;SDS011;25402;42.004;23.088;2022-08-19T17:46:27;42.35;;;7.28;;
39728;SDS011;25402;42.004;23.088;2022-08-19T17:48:54;25.70;;;7.20;;
39728;SDS011;25402;42.004;23.088;2022-08-19T17:51:22;28.15;;;6.43;;
39728;SDS011;25402;42.004;23.088;2022-08-19T17:53:52;36.25;;;7.78;;
39728;SDS011;25402;42.004;23.088;2022-08-19T17:56:19;23.23;;;6.68;;
39728;SDS011;25402;42.004;23.088;2022-08-19T17:58:50;36.25;;;7.68;;
39728;SDS011;25402;42.004;23.088;2022-08-19T18:01:18;38.85;;;7.65;;
39728;SDS011;25402;42.004;23.088;2022-08-19T18:03:45;29.88;;;7.45;;
39728;SDS011;25402;42.004;23.088;2022-08-19T18:06:12;23.77;;;7.18;;
39728;SDS011;25402;42.004;23.088;2022-08-19T18:08:46;43.80;;;7.45;;
39728;SDS011;25402;42.004;23.088;2022-08-19T18:11:22;47.85;;;11.23;;
39728;SDS011;25402;42.004;23.088;2022-08-19T18:13:53;37.75;;;10.45;;
39728;SDS011;25402;42.004;23.088;2022-08-19T18:16:24;39.55;;;9.00;;
39728;SDS011;25402;42.004;23.088;2022-08-19T18:18:53;40.65;;;11.38;;
39728;SDS011;25402;42.004;23.088;2022-08-19T18:21:25;46.75;;;8.82;;
39728;SDS011;25402;42.004;23.088;2022-08-19T18:23:56;27.02;;;8.77;;
39728;SDS011;25402;42.004;23.088;2022-08-19T18:26:24;30.27;;;8.43;;
39728;SDS011;25402;42.004;23.088;2022-08-19T18:28:54;38.13;;;9.45;;
39728;SDS011;25402;42.004;23.088;2022-08-19T18:31:26;29.13;;;8.38;;
39728;SDS011;25402;42.004;23.088;2022-08-19T18:33:54;21.75;;;7.18;;
39728;SDS011;25402;42.004;23.088;2022-08-19T18:36:21;42.53;;;8.10;;
39728;SDS011;25402;42.004;23.088;2022-08-19T18:38:49;26.98;;;6.72;;
39728;SDS011;25402;42.004;23.088;2022-08-19T18:41:33;19.52;;;5.90;;
39728;SDS011;25402;42.004;23.088;2022-08-19T18:44:19;19.55;;;5.00;;
39728;SDS011;25402;42.004;23.088;2022-08-19T18:47:03;17.60;;;5.35;;
39728;SDS011;25402;42.004;23.088;2022-08-19T18:49:48;22.50;;;5.88;;
39728;SDS011;25402;42.004;23.088;2022-08-19T18:52:15;14.80;;;4.97;;
39728;SDS011;25402;42.004;23.088;2022-08-19T18:54:42;15.15;;;5.60;;
39728;SDS011;25402;42.004;23.088;2022-08-19T18:57:11;27.70;;;4.93;;
39728;SDS011;25402;42.004;23.088;2022-08-19T18:59:39;22.92;;;6.78;;
39728;SDS011;25402;42.004;23.088;2022-08-19T19:02:07;31.20;;;9.82;;
39728;SDS011;25402;42.004;23.088;2022-08-19T19:04:36;30.05;;;10.07;;
39728;SDS011;25402;42.004;23.088;2022-08-19T19:07:04;29.05;;;10.35;;
39728;SDS011;25402;42.004;23.088;2022-08-19T19:09:31;16.02;;;5.57;;
39728;SDS011;25402;42.004;23.088;2022-08-19T19:11:58;20.67;;;7.82;;
39728;SDS011;25402;42.004;23.088;2022-08-19T19:14:29;22.95;;;6.78;;
39728;SDS011;25402;42.004;23.088;2022-08-19T19:16:59;22.15;;;7.95;;
39728;SDS011;25402;42.004;23.088;2022-08-19T19:19:28;21.25;;;6.05;;
39728;SDS011;25402;42.004;23.088;2022-08-19T19:21:56;19.77;;;6.20;;
39728;SDS011;25402;42.004;23.088;2022-08-19T19:24:24;23.13;;;6.45;;
39728;SDS011;25402;42.004;23.088;2022-08-19T19:26:53;34.03;;;6.35;;
39728;SDS011;25402;42.004;23.088;2022-08-19T19:29:21;25.73;;;7.93;;
39728;SDS011;25402;42.004;23.088;2022-08-19T19:31:49;51.80;;;9.52;;
39728;SDS011;25402;42.004;23.088;2022-08-19T19:34:20;30.90;;;8.45;;
39728;SDS011;25402;42.004;23.088;2022-08-19T19:36:49;23.55;;;7.35;;
39728;SDS011;25402;42.004;23.088;2022-08-19T19:39:17;28.98;;;8.00;;
39728;SDS011;25402;42.004;23.088;2022-08-19T19:41:45;97.53;;;11.32;;
39728;SDS011;25402;42.004;23.088;2022-08-19T19:44:13;64.35;;;9.35;;
39728;SDS011;25402;42.004;23.088;2022-08-19T19:46:42;44.90;;;7.70;;
39728;SDS011;25402;42.004;23.088;2022-08-19T19:49:11;31.88;;;6.82;;
39728;SDS011;25402;42.004;23.088;2022-08-19T19:51:41;32.53;;;7.28;;
39728;SDS011;25402;42.004;23.088;2022-08-19T19:54:12;48.87;;;7.97;;
39728;SDS011;25402;42.004;23.088;2022-08-19T19:56:39;42.03;;;7.45;;
39728;SDS011;25402;42.004;23.088;2022-08-19T19:59:09;54.47;;;8.07;;
39728;SDS011;25402;42.004;23.088;2022-08-19T20:01:36;36.80;;;6.55;;
39728;SDS011;25402;42.004;23.088;2022-08-19T20:04:10;20.55;;;6.57;;
39728;SDS011;25402;42.004;23.088;2022-08-19T20:06:39;18.15;;;5.45;;
39728;SDS011;25402;42.004;23.088;2022-08-19T20:09:41;15.97;;;5.77;;
39728;SDS011;25402;42.004;23.088;2022-08-19T20:12:23;31.13;;;5.47;;
39728;SDS011;25402;42.004;23.088;2022-08-19T20:14:59;20.80;;;5.38;;
39728;SDS011;25402;42.004;23.088;2022-08-19T20:17:46;21.60;;;5.28;;
39728;SDS011;25402;42.004;23.088;2022-08-19T20:20:33;18.88;;;6.25;;
39728;SDS011;25402;42.004;23.088;2022-08-19T20:23:21;18.17;;;5.38;;
39728;SDS011;25402;42.004;23.088;2022-08-19T20:29:11;19.80;;;5.90;;
39728;SDS011;25402;42.004;23.088;2022-08-19T20:31:58;28.25;;;5.85;;